createdAt,value
2023-04-05T00:00:30.752Z,63.57
2023-04-05T00:01:34.280Z,63.83
2023-04-05T00:02:36.964Z,64.00
2023-04-05T00:03:42.736Z,64.40
2023-04-05T00:04:52.385Z,63.99
2023-04-05T00:05:55.584Z,64.06
2023-04-05T00:06:58.308Z,64.47
2023-04-05T00:08:02.005Z,64.41
2023-04-05T00:09:05.324Z,63.93
2023-04-05T00:10:11.844Z,63.83
2023-04-05T00:11:13.719Z,64.41
2023-04-05T00:12:16.651Z,64.01
2023-04-05T00:13:19.257Z,64.17
2023-04-05T00:14:22.029Z,64.19
2023-04-05T00:15:24.570Z,64.22
2023-04-05T00:16:28.301Z,64.24
2023-04-05T00:17:31.522Z,64.03
2023-04-05T00:18:38.823Z,64.30
2023-04-05T00:19:40.986Z,64.19
2023-04-05T00:20:44.206Z,63.88
2023-04-05T00:21:46.671Z,63.61
2023-04-05T00:22:50.572Z,63.88
2023-04-05T00:23:53.897Z,64.61
2023-04-05T00:24:56.663Z,64.42
2023-04-05T00:26:01.161Z,64.43
2023-04-05T00:27:03.933Z,64.48
2023-04-05T00:28:05.892Z,65.24
2023-04-05T00:29:10.875Z,64.76
2023-04-05T00:30:13.280Z,65.37
2023-04-05T00:31:16.764Z,65.00
2023-04-05T00:32:19.132Z,64.69
2023-04-05T00:33:22.060Z,64.85
2023-04-05T00:34:24.179Z,64.23
2023-04-05T00:35:28.275Z,64.31
2023-04-05T00:36:31.157Z,64.28
2023-04-05T00:37:34.005Z,64.58
2023-04-05T00:38:36.014Z,65.01
2023-04-05T00:39:39.232Z,65.04
2023-04-05T00:40:43.583Z,64.40
2023-04-05T00:41:48.834Z,64.77
2023-04-05T00:42:50.921Z,64.97
2023-04-05T00:43:53.719Z,65.03
2023-04-05T00:44:56.157Z,65.25
2023-04-05T00:45:59.188Z,65.03
2023-04-05T00:47:02.947Z,65.61
2023-04-05T00:48:06.635Z,64.95
2023-04-05T00:49:09.269Z,65.26
2023-04-05T00:50:12.270Z,65.40
2023-04-05T00:51:15.163Z,65.87
2023-04-05T00:52:19.463Z,65.08
2023-04-05T00:53:21.882Z,65.73
2023-04-05T00:54:25.565Z,65.60
2023-04-05T00:55:27.845Z,65.29
2023-04-05T00:56:31.851Z,65.50
2023-04-05T00:57:39.168Z,65.64
2023-04-05T00:58:43.036Z,65.23
2023-04-05T00:59:45.042Z,65.82
2023-04-05T01:00:59.312Z,65.77
2023-04-05T01:02:05.111Z,65.75
2023-04-05T01:03:08.352Z,65.87
2023-04-05T01:04:14.003Z,66.37
2023-04-05T01:05:26.029Z,65.62
2023-04-05T01:06:39.040Z,65.71
2023-04-05T01:07:46.586Z,65.46
2023-04-05T01:08:53.846Z,65.96
2023-04-05T01:09:57.434Z,66.62
2023-04-05T01:11:05.513Z,66.61
2023-04-05T01:12:09.745Z,67.12
2023-04-05T01:13:13.916Z,66.96
2023-04-05T01:14:16.251Z,67.47
2023-04-05T01:15:19.087Z,67.40
2023-04-05T01:16:20.970Z,67.81
2023-04-05T01:17:28.316Z,67.41
2023-04-05T01:18:30.952Z,67.38
2023-04-05T01:19:37.220Z,67.41
2023-04-05T01:21:00.760Z,67.33
2023-04-05T01:22:15.813Z,67.49
2023-04-05T01:23:38.645Z,68.14
2023-04-05T01:24:52.853Z,67.99
2023-04-05T01:26:32.973Z,68.19
2023-04-05T01:27:46.689Z,68.14
2023-04-05T01:29:37.885Z,68.30
2023-04-05T01:30:42.608Z,68.35
2023-04-05T01:31:51.667Z,68.31
2023-04-05T01:33:04.643Z,68.26
2023-04-05T01:34:12.509Z,68.00
2023-04-05T01:35:18.650Z,67.98
2023-04-05T01:36:27.264Z,67.93
2023-04-05T01:37:32.839Z,67.72
2023-04-05T01:38:36.979Z,67.34
2023-04-05T01:39:40.070Z,67.65
2023-04-05T01:40:43.625Z,67.96
2023-04-05T01:41:46.432Z,67.96
2023-04-05T01:42:50.664Z,68.47
2023-04-05T01:43:52.578Z,68.24
2023-04-05T01:44:58.156Z,68.01
2023-04-05T01:46:00.279Z,68.31
2023-04-05T01:47:03.209Z,68.11
2023-04-05T01:48:05.915Z,68.17
2023-04-05T01:49:09.515Z,68.52
2023-04-05T01:50:11.328Z,68.30
2023-04-05T01:51:16.443Z,68.65
2023-04-05T01:52:20.221Z,68.38
2023-04-05T01:53:23.136Z,68.43
2023-04-05T01:54:25.114Z,68.21
2023-04-05T01:55:27.977Z,68.36
2023-04-05T01:56:29.828Z,68.47
2023-04-05T01:57:32.754Z,68.45
2023-04-05T01:58:34.637Z,68.90
2023-04-05T01:59:38.139Z,68.36
2023-04-05T02:00:42.103Z,68.35
2023-04-05T02:01:45.374Z,68.67
2023-04-05T02:02:47.336Z,68.26
2023-04-05T02:03:51.088Z,68.87
2023-04-05T02:04:53.554Z,68.46
2023-04-05T02:05:56.475Z,68.93
2023-04-05T02:07:01.037Z,68.66
2023-04-05T02:08:03.956Z,68.59
2023-04-05T02:09:05.819Z,69.28
2023-04-05T02:10:09.969Z,70.01
2023-04-05T02:11:13.770Z,70.48
2023-04-05T02:12:16.703Z,70.11
2023-04-05T02:13:22.067Z,70.18
2023-04-05T02:14:25.935Z,69.60
2023-04-05T02:15:27.794Z,69.85
2023-04-05T02:16:35.212Z,69.90
2023-04-05T02:17:40.031Z,69.62
2023-04-05T02:18:43.617Z,69.31
2023-04-05T02:19:49.810Z,69.50
2023-04-05T02:20:52.973Z,69.80
2023-04-05T02:21:54.954Z,69.66
2023-04-05T02:23:01.566Z,69.63
2023-04-05T02:24:04.217Z,69.60
2023-04-05T02:25:08.679Z,69.62
2023-04-05T02:26:13.149Z,69.27
2023-04-05T02:27:16.037Z,69.06
2023-04-05T02:28:21.032Z,69.82
2023-04-05T02:29:29.232Z,69.31
2023-04-05T02:30:31.755Z,69.38
2023-04-05T02:31:36.262Z,69.15
2023-04-05T02:32:38.254Z,69.75
2023-04-05T02:33:44.118Z,69.50
2023-04-05T02:34:46.323Z,69.61
2023-04-05T02:35:52.089Z,69.81
2023-04-05T02:36:53.997Z,69.43
2023-04-05T02:37:57.013Z,69.74
2023-04-05T02:39:01.633Z,69.25
2023-04-05T02:40:08.797Z,69.49
2023-04-05T02:41:13.329Z,69.88
2023-04-05T02:42:17.361Z,69.82
2023-04-05T02:43:19.172Z,69.67
2023-04-05T02:44:22.267Z,69.82
2023-04-05T02:45:28.554Z,70.22
2023-04-05T02:46:36.468Z,70.01
2023-04-05T02:47:40.736Z,70.35
2023-04-05T02:48:43.703Z,70.34
2023-04-05T02:49:49.156Z,70.43
2023-04-05T02:50:55.030Z,70.80
2023-04-05T02:51:57.039Z,70.64
2023-04-05T02:52:59.856Z,70.82
2023-04-05T02:54:03.421Z,70.38
2023-04-05T02:55:14.085Z,70.14
2023-04-05T02:56:15.943Z,70.48
2023-04-05T02:57:21.330Z,70.57
2023-04-05T02:58:32.575Z,70.62
2023-04-05T02:59:38.264Z,70.55
2023-04-05T03:00:41.093Z,70.38
2023-04-05T03:01:48.201Z,70.84
2023-04-05T03:02:59.328Z,70.52
2023-04-05T03:04:02.799Z,70.80
2023-04-05T03:05:07.805Z,70.31
2023-04-05T03:06:11.828Z,70.79
2023-04-05T03:07:18.633Z,70.90
2023-04-05T03:08:24.037Z,70.84
2023-04-05T03:09:35.175Z,70.50
2023-04-05T03:10:45.064Z,70.60
2023-04-05T03:11:52.362Z,70.36
2023-04-05T03:12:55.165Z,70.38
2023-04-05T03:14:00.264Z,70.31
2023-04-05T03:15:29.437Z,70.85
2023-04-05T03:16:32.785Z,70.10
2023-04-05T03:17:44.152Z,69.87
2023-04-05T03:18:47.212Z,70.06
2023-04-05T03:19:50.079Z,70.34
2023-04-05T03:20:57.135Z,70.87
2023-04-05T03:22:00.873Z,70.08
2023-04-05T03:23:08.772Z,70.90
2023-04-05T03:24:12.891Z,70.60
2023-04-05T03:25:17.466Z,70.73
2023-04-05T03:26:24.511Z,70.99
2023-04-05T03:27:30.880Z,70.92
2023-04-05T03:28:45.205Z,70.74
2023-04-05T03:29:47.666Z,70.59
2023-04-05T03:30:53.610Z,69.90
2023-04-05T03:31:58.606Z,70.38
2023-04-05T03:33:03.456Z,70.32
2023-04-05T03:34:13.123Z,70.32
2023-04-05T03:35:21.153Z,70.34
2023-04-05T03:36:24.600Z,69.91
2023-04-05T03:37:28.422Z,69.50
2023-04-05T03:38:39.769Z,69.74
2023-04-05T03:39:50.926Z,70.11
2023-04-05T03:40:55.583Z,69.83
2023-04-05T03:41:57.593Z,69.90
2023-04-05T03:43:00.420Z,69.46
2023-04-05T03:44:02.793Z,69.43
2023-04-05T03:45:07.058Z,69.84
2023-04-05T03:46:09.069Z,69.70
2023-04-05T03:47:13.232Z,69.22
2023-04-05T03:48:20.212Z,69.45
2023-04-05T03:49:25.046Z,69.46
2023-04-05T03:50:27.831Z,69.61
2023-04-05T03:51:31.208Z,69.61
2023-04-05T03:52:33.131Z,69.18
2023-04-05T03:53:41.275Z,69.54
2023-04-05T03:54:43.575Z,69.30
2023-04-05T03:55:49.486Z,69.35
2023-04-05T03:56:55.118Z,69.81
2023-04-05T03:57:59.338Z,70.29
2023-04-05T03:59:09.358Z,70.33
2023-04-05T04:00:14.416Z,70.17
2023-04-05T04:01:20.029Z,69.91
2023-04-05T04:02:22.210Z,69.80
2023-04-05T04:03:28.824Z,70.04
2023-04-05T04:04:30.933Z,70.20
2023-04-05T04:05:41.331Z,70.74
2023-04-05T04:06:44.407Z,70.69
2023-04-05T04:07:48.521Z,70.84
2023-04-05T04:08:50.659Z,71.12
2023-04-05T04:09:55.406Z,70.97
2023-04-05T04:10:58.085Z,71.15
2023-04-05T04:12:04.308Z,70.92
2023-04-05T04:13:06.931Z,71.03
2023-04-05T04:14:10.370Z,70.29
2023-04-05T04:15:31.778Z,71.22
2023-04-05T04:17:02.697Z,71.22
2023-04-05T04:18:28.173Z,70.81
2023-04-05T04:19:50.298Z,70.60
2023-04-05T04:21:33.597Z,70.80
2023-04-05T04:22:49.038Z,70.70
2023-04-05T04:24:06.407Z,70.72
2023-04-05T04:25:30.875Z,70.88
2023-04-05T04:26:50.332Z,71.14
2023-04-05T04:28:07.365Z,70.36
2023-04-05T04:29:31.284Z,70.89
2023-04-05T04:30:57.654Z,70.53
2023-04-05T04:32:10.957Z,70.95
2023-04-05T04:33:35.659Z,71.51
2023-04-05T04:34:58.699Z,71.39
2023-04-05T04:36:37.003Z,71.38
2023-04-05T04:37:57.866Z,71.13
2023-04-05T04:39:32.225Z,71.81
2023-04-05T04:40:53.742Z,71.48
2023-04-05T04:42:19.856Z,71.26
2023-04-05T04:43:43.868Z,71.32
2023-04-05T04:44:50.033Z,70.93
2023-04-05T04:46:01.589Z,71.01
2023-04-05T04:47:14.418Z,70.96
2023-04-05T04:48:47.384Z,71.86
2023-04-05T04:50:07.838Z,71.78
2023-04-05T04:51:13.393Z,71.61
2023-04-05T04:52:15.409Z,71.73
2023-04-05T04:53:18.735Z,71.47
2023-04-05T04:54:22.773Z,71.11
2023-04-05T04:55:26.180Z,71.87
2023-04-05T04:56:28.026Z,71.95
2023-04-05T04:57:32.506Z,71.81
2023-04-05T04:58:34.452Z,71.74
2023-04-05T04:59:42.721Z,71.27
2023-04-05T05:00:45.139Z,71.46
2023-04-05T05:01:48.254Z,71.64
2023-04-05T05:02:50.873Z,71.25
2023-04-05T05:03:56.111Z,72.05
2023-04-05T05:05:02.872Z,71.78
2023-04-05T05:06:06.309Z,71.45
2023-04-05T05:07:11.173Z,71.91
2023-04-05T05:08:14.012Z,71.75
2023-04-05T05:09:17.140Z,71.86
2023-04-05T05:10:25.620Z,72.03
2023-04-05T05:11:32.118Z,71.86
2023-04-05T05:12:35.164Z,72.49
2023-04-05T05:13:39.619Z,72.62
2023-04-05T05:14:42.464Z,72.05
2023-04-05T05:15:46.672Z,71.98
2023-04-05T05:16:54.691Z,72.46
2023-04-05T05:17:58.304Z,72.31
2023-04-05T05:19:01.503Z,72.04
2023-04-05T05:20:14.136Z,72.32
2023-04-05T05:21:21.144Z,72.39
2023-04-05T05:22:34.240Z,72.33
2023-04-05T05:23:36.247Z,72.21
2023-04-05T05:24:39.940Z,72.13
2023-04-05T05:25:42.739Z,71.63
2023-04-05T05:26:45.983Z,71.82
2023-04-05T05:27:48.853Z,71.97
2023-04-05T05:28:51.673Z,71.75
2023-04-05T05:29:54.331Z,71.71
2023-04-05T05:30:57.274Z,72.20
2023-04-05T05:31:59.344Z,72.44
2023-04-05T05:33:02.930Z,71.62
2023-04-05T05:34:06.440Z,70.93
2023-04-05T05:35:10.061Z,70.55
2023-04-05T05:36:12.303Z,70.16
2023-04-05T05:37:17.714Z,69.92
2023-04-05T05:38:19.521Z,69.94
2023-04-05T05:39:23.538Z,70.02
2023-04-05T05:40:26.837Z,69.62
2023-04-05T05:41:29.681Z,69.79
2023-04-05T05:42:32.720Z,69.92
2023-04-05T05:43:35.580Z,69.57
2023-04-05T05:44:37.569Z,69.37
2023-04-05T05:45:46.303Z,69.04
2023-04-05T05:46:49.121Z,68.79
2023-04-05T05:47:51.147Z,68.85
2023-04-05T05:48:55.727Z,68.67
2023-04-05T05:49:59.941Z,68.36
2023-04-05T05:51:01.973Z,68.26
2023-04-05T05:52:05.534Z,68.55
2023-04-05T05:53:07.695Z,68.19
2023-04-05T05:54:10.597Z,68.12
2023-04-05T05:55:12.820Z,68.28
2023-04-05T05:56:15.636Z,68.03
2023-04-05T05:57:17.623Z,68.43
2023-04-05T05:58:21.715Z,68.51
2023-04-05T05:59:23.567Z,67.67
2023-04-05T06:00:27.265Z,67.76
2023-04-05T06:01:34.544Z,67.70
2023-04-05T06:02:37.610Z,67.18
2023-04-05T06:03:39.629Z,67.25
2023-04-05T06:04:42.900Z,67.06
2023-04-05T06:05:52.211Z,66.95
2023-04-05T06:06:55.043Z,66.86
2023-04-05T06:07:59.478Z,67.18
2023-04-05T06:09:01.585Z,67.22
2023-04-05T06:10:05.425Z,67.21
2023-04-05T06:11:08.385Z,66.60
2023-04-05T06:12:11.177Z,66.81
2023-04-05T06:13:14.057Z,66.80
2023-04-05T06:14:17.693Z,66.46
2023-04-05T06:15:20.566Z,66.35
2023-04-05T06:16:22.895Z,66.40
2023-04-05T06:17:26.268Z,66.40
2023-04-05T06:18:29.139Z,66.28
2023-04-05T06:19:31.440Z,66.15
2023-04-05T06:20:35.712Z,66.40
2023-04-05T06:21:39.624Z,66.54
2023-04-05T06:22:42.654Z,66.00
2023-04-05T06:23:44.760Z,66.26
2023-04-05T06:24:47.706Z,66.21
2023-04-05T06:25:49.696Z,66.52
2023-04-05T06:26:53.063Z,66.60
2023-04-05T06:27:55.030Z,66.37
2023-04-05T06:28:58.085Z,66.31
2023-04-05T06:30:01.896Z,65.99
2023-04-05T06:31:04.904Z,66.08
2023-04-05T06:32:07.865Z,65.92
2023-04-05T06:33:10.952Z,65.15
2023-04-05T06:34:13.850Z,65.59
2023-04-05T06:35:17.658Z,65.25
2023-04-05T06:36:21.411Z,65.44
2023-04-05T06:37:24.594Z,65.11
2023-04-05T06:38:27.407Z,65.06
2023-04-05T06:39:30.130Z,65.12
2023-04-05T06:40:33.053Z,65.12
2023-04-05T06:41:35.854Z,64.76
2023-04-05T06:42:37.736Z,64.45
2023-04-05T06:43:42.430Z,63.96
2023-04-05T06:44:45.894Z,64.29
2023-04-05T06:45:51.562Z,64.74
2023-04-05T06:46:53.507Z,64.12
2023-04-05T06:47:56.396Z,63.79
2023-04-05T06:48:58.555Z,64.35
2023-04-05T06:50:02.206Z,64.30
2023-04-05T06:51:04.433Z,63.64
2023-04-05T06:52:07.358Z,63.97
2023-04-05T06:53:10.891Z,63.87
2023-04-05T06:54:13.682Z,63.81
2023-04-05T06:55:16.155Z,64.14
2023-04-05T06:56:19.049Z,63.56
2023-04-05T06:57:21.105Z,63.65
2023-04-05T06:58:26.307Z,63.73
2023-04-05T06:59:28.756Z,63.54
2023-04-05T07:00:31.829Z,63.82
2023-04-05T07:01:34.090Z,63.54
2023-04-05T07:02:36.943Z,63.67
2023-04-05T07:03:39.845Z,63.25
2023-04-05T07:04:43.664Z,63.56
2023-04-05T07:05:51.415Z,63.19
2023-04-05T07:06:55.691Z,62.95
2023-04-05T07:07:57.739Z,63.03
2023-04-05T07:09:04.212Z,63.28
2023-04-05T07:10:07.208Z,62.91
2023-04-05T07:11:11.324Z,62.59
2023-04-05T07:12:13.240Z,62.70
2023-04-05T07:13:17.103Z,62.40
2023-04-05T07:14:19.413Z,62.92
2023-04-05T07:15:22.575Z,63.00
2023-04-05T07:16:24.862Z,62.63
2023-04-05T07:17:28.074Z,63.04
2023-04-05T07:18:30.144Z,63.33
2023-04-05T07:19:33.293Z,63.13
2023-04-05T07:20:37.807Z,62.99
2023-04-05T07:21:39.590Z,62.90
2023-04-05T07:22:42.612Z,61.73
2023-04-05T07:23:46.488Z,60.85
2023-04-05T07:24:52.376Z,60.04
2023-04-05T07:25:55.431Z,60.72
2023-04-05T07:26:58.304Z,61.79
2023-04-05T07:28:01.863Z,62.49
2023-04-05T07:29:04.878Z,62.56
2023-04-05T07:30:08.142Z,63.28
2023-04-05T07:31:11.054Z,62.83
2023-04-05T07:32:12.951Z,62.45
2023-04-05T07:33:21.669Z,62.35
2023-04-05T07:34:24.518Z,60.48
2023-04-05T07:35:26.335Z,60.86
2023-04-05T07:36:31.163Z,60.05
2023-04-05T07:37:32.973Z,60.28
2023-04-05T07:38:36.890Z,60.49
2023-04-05T07:39:42.483Z,60.28
2023-04-05T07:40:46.563Z,58.56
2023-04-05T07:41:48.376Z,59.51
2023-04-05T07:42:51.585Z,58.64
2023-04-05T07:43:53.459Z,59.40
2023-04-05T07:44:56.209Z,58.04
2023-04-05T07:46:02.809Z,57.60
2023-04-05T07:47:04.730Z,58.32
2023-04-05T07:48:07.635Z,57.50
2023-04-05T07:49:10.706Z,57.50
2023-04-05T07:50:15.197Z,57.54
2023-04-05T07:51:17.390Z,56.74
2023-04-05T07:52:20.598Z,54.72
2023-04-05T07:53:22.409Z,54.33
2023-04-05T07:54:25.306Z,55.90
2023-04-05T07:55:29.197Z,54.90
2023-04-05T07:56:33.418Z,54.09
2023-04-05T07:57:35.699Z,55.49
2023-04-05T07:58:41.100Z,55.30
2023-04-05T07:59:43.191Z,55.13
2023-04-05T08:00:46.326Z,56.11
2023-04-05T08:01:50.429Z,56.33
2023-04-05T08:02:53.250Z,54.18
2023-04-05T08:03:57.402Z,55.21
2023-04-05T08:05:00.571Z,55.23
2023-04-05T08:06:11.038Z,54.78
2023-04-05T08:07:14.030Z,53.56
2023-04-05T08:08:17.793Z,54.45
2023-04-05T08:09:20.580Z,54.06
2023-04-05T08:10:23.423Z,53.75
2023-04-05T08:11:26.971Z,54.14
2023-04-05T08:12:31.876Z,55.27
2023-04-05T08:13:33.961Z,53.27
2023-04-05T08:14:37.194Z,53.32
2023-04-05T08:15:40.953Z,52.09
2023-04-05T08:16:44.417Z,50.88
2023-04-05T08:17:47.558Z,52.41
2023-04-05T08:18:50.516Z,51.46
2023-04-05T08:19:53.255Z,52.24
2023-04-05T08:20:57.148Z,53.53
2023-04-05T08:21:59.992Z,53.08
2023-04-05T08:23:02.835Z,52.40
2023-04-05T08:24:06.537Z,52.34
2023-04-05T08:25:10.511Z,53.26
2023-04-05T08:26:12.479Z,53.16
2023-04-05T08:27:15.786Z,52.82
2023-04-05T08:28:19.231Z,53.18
2023-04-05T08:29:22.102Z,52.99
2023-04-05T08:30:24.959Z,53.73
2023-04-05T08:31:28.250Z,54.34
2023-04-05T08:32:30.258Z,54.36
2023-04-05T08:33:34.373Z,54.05
2023-04-05T08:34:36.416Z,53.85
2023-04-05T08:35:39.828Z,53.95
2023-04-05T08:36:43.058Z,53.35
2023-04-05T08:37:47.537Z,52.53
2023-04-05T08:38:49.356Z,52.52
2023-04-05T08:39:52.439Z,53.05
2023-04-05T08:40:54.343Z,52.12
2023-04-05T08:42:03.140Z,52.58
2023-04-05T08:43:11.572Z,52.38
2023-04-05T08:44:16.937Z,51.41
2023-04-05T08:45:21.081Z,51.24
2023-04-05T08:46:24.196Z,51.69
2023-04-05T08:47:27.232Z,50.76
2023-04-05T08:48:32.956Z,50.54
2023-04-05T08:49:35.919Z,50.76
2023-04-05T08:50:37.916Z,51.47
2023-04-05T08:51:40.844Z,51.34
2023-04-05T08:52:43.808Z,51.62
2023-04-05T08:53:46.832Z,51.14
2023-04-05T08:54:50.726Z,51.34
2023-04-05T08:56:22.118Z,51.70
2023-04-05T08:57:27.409Z,51.49
2023-04-05T08:58:39.692Z,51.26
2023-04-05T08:59:44.872Z,50.74
2023-04-05T09:00:47.560Z,50.74
2023-04-05T09:01:52.617Z,50.67
2023-04-05T09:02:57.154Z,50.79
2023-04-05T09:04:07.424Z,50.98
2023-04-05T09:05:10.191Z,51.19
2023-04-05T09:06:14.048Z,51.15
2023-04-05T09:07:43.055Z,50.20
2023-04-05T09:08:45.340Z,50.55
2023-04-05T09:09:51.042Z,50.03
2023-04-05T09:10:57.389Z,49.83
2023-04-05T09:11:59.412Z,48.91
2023-04-05T09:13:03.451Z,48.95
2023-04-05T09:14:06.814Z,49.59
2023-04-05T09:15:11.645Z,50.33
2023-04-05T09:16:14.828Z,49.16
2023-04-05T09:17:19.494Z,49.66
2023-04-05T09:18:26.886Z,49.46
2023-04-05T09:19:29.956Z,49.73
2023-04-05T09:20:34.766Z,49.50
2023-04-05T09:22:04.638Z,49.39
2023-04-05T09:23:12.507Z,48.22
2023-04-05T09:24:15.576Z,49.01
2023-04-05T09:25:35.878Z,46.34
2023-04-05T09:26:45.265Z,46.65
2023-04-05T09:27:56.258Z,47.47
2023-04-05T09:28:59.057Z,47.60
2023-04-05T09:30:03.504Z,47.43
2023-04-05T09:31:08.936Z,46.04
2023-04-05T09:32:12.715Z,44.25
2023-04-05T09:33:19.979Z,45.15
2023-04-05T09:34:22.903Z,44.37
2023-04-05T09:35:27.672Z,44.15
2023-04-05T09:36:30.106Z,43.98
2023-04-05T09:37:33.566Z,43.32
2023-04-05T09:38:45.964Z,43.27
2023-04-05T09:40:04.196Z,43.06
2023-04-05T09:41:09.131Z,42.37
2023-04-05T09:42:14.363Z,42.05
2023-04-05T09:43:36.901Z,42.09
2023-04-05T09:44:53.822Z,40.36
2023-04-05T09:45:58.519Z,40.94
2023-04-05T09:47:16.706Z,41.04
2023-04-05T09:48:20.328Z,40.68
2023-04-05T09:49:33.300Z,40.63
2023-04-05T09:50:36.526Z,40.45
2023-04-05T09:51:42.359Z,41.68
2023-04-05T09:52:48.211Z,41.89
2023-04-05T09:54:00.521Z,41.66
2023-04-05T09:55:06.683Z,40.45
2023-04-05T09:56:09.651Z,40.42
2023-04-05T09:57:12.610Z,40.52
2023-04-05T09:58:21.439Z,41.21
2023-04-05T09:59:23.654Z,41.42
2023-04-05T10:00:26.500Z,41.20
2023-04-05T10:01:28.994Z,40.43
2023-04-05T10:02:38.326Z,40.68
2023-04-05T10:03:46.832Z,41.40
2023-04-05T10:04:49.724Z,41.10
2023-04-05T10:05:55.475Z,41.09
2023-04-05T10:06:58.390Z,40.57
2023-04-05T10:08:02.007Z,41.14
2023-04-05T10:09:09.021Z,41.13
2023-04-05T10:10:12.560Z,41.48
2023-04-05T10:11:19.299Z,41.68
2023-04-05T10:12:26.767Z,41.63
2023-04-05T10:13:28.621Z,41.45
2023-04-05T10:14:31.487Z,42.08
2023-04-05T10:15:33.746Z,42.27
2023-04-05T10:16:39.707Z,42.08
2023-04-05T10:17:49.659Z,42.12
2023-04-05T10:18:52.622Z,41.92
2023-04-05T10:20:11.742Z,42.48
2023-04-05T10:21:17.169Z,42.19
2023-04-05T10:22:24.439Z,42.54
2023-04-05T10:23:29.604Z,42.17
2023-04-05T10:24:36.713Z,41.63
2023-04-05T10:25:52.950Z,40.61
2023-04-05T10:27:01.089Z,41.22
2023-04-05T10:28:05.675Z,41.84
2023-04-05T10:29:13.674Z,40.95
2023-04-05T10:30:17.550Z,41.70
2023-04-05T10:31:37.136Z,42.35
2023-04-05T10:32:53.307Z,40.38
2023-04-05T10:33:59.463Z,41.28
2023-04-05T10:35:08.351Z,42.12
2023-04-05T10:36:18.437Z,41.18
2023-04-05T10:37:33.678Z,41.58
2023-04-05T10:38:45.935Z,40.57
2023-04-05T10:39:51.384Z,40.62
2023-04-05T10:40:56.402Z,41.23
2023-04-05T10:42:01.027Z,40.66
2023-04-05T10:43:09.288Z,39.40
2023-04-05T10:44:25.123Z,40.31
2023-04-05T10:45:29.778Z,40.72
2023-04-05T10:46:33.521Z,41.38
2023-04-05T10:47:42.230Z,40.65
2023-04-05T10:48:50.572Z,42.26
2023-04-05T10:49:54.202Z,41.95
2023-04-05T10:50:57.859Z,42.39
2023-04-05T10:51:59.873Z,41.97
2023-04-05T10:53:04.581Z,41.01
2023-04-05T10:54:08.537Z,40.60
2023-04-05T10:55:11.475Z,41.08
2023-04-05T10:56:14.624Z,40.29
2023-04-05T10:57:19.075Z,41.65
2023-04-05T10:58:21.978Z,41.20
2023-04-05T10:59:25.735Z,41.45
2023-04-05T11:00:28.851Z,41.83
2023-04-05T11:01:31.135Z,41.43
2023-04-05T11:02:34.381Z,40.54
2023-04-05T11:03:48.877Z,40.63
2023-04-05T11:04:57.735Z,41.05
2023-04-05T11:06:25.269Z,41.50
2023-04-05T11:07:44.026Z,41.70
2023-04-05T11:08:47.177Z,41.23
2023-04-05T11:09:56.652Z,41.84
2023-04-05T11:10:58.493Z,41.40
2023-04-05T11:12:01.414Z,40.02
2023-04-05T11:13:04.852Z,39.87
2023-04-05T11:14:19.543Z,39.77
2023-04-05T11:15:32.490Z,39.15
2023-04-05T11:16:41.533Z,39.34
2023-04-05T11:17:43.417Z,38.84
2023-04-05T11:18:48.259Z,38.83
2023-04-05T11:19:52.338Z,39.00
2023-04-05T11:21:08.006Z,39.02
2023-04-05T11:22:10.058Z,38.21
2023-04-05T11:23:13.831Z,38.35
2023-04-05T11:24:16.958Z,37.90
2023-04-05T11:25:23.137Z,38.23
2023-04-05T11:26:32.719Z,38.00
2023-04-05T11:27:37.521Z,37.84
2023-04-05T11:28:41.328Z,37.22
2023-04-05T11:29:50.042Z,37.31
2023-04-05T11:30:56.456Z,37.64
2023-04-05T11:32:00.242Z,37.25
2023-04-05T11:33:09.091Z,37.95
2023-04-05T11:34:12.466Z,37.69
2023-04-05T11:35:17.694Z,37.91
2023-04-05T11:36:31.375Z,37.61
2023-04-05T11:37:56.677Z,38.26
2023-04-05T11:39:28.027Z,38.10
2023-04-05T11:40:31.914Z,39.11
2023-04-05T11:41:35.621Z,39.52
2023-04-05T11:42:38.632Z,39.31
2023-04-05T11:43:42.564Z,40.03
2023-04-05T11:44:47.044Z,39.76
2023-04-05T11:45:49.095Z,40.33
2023-04-05T11:46:52.915Z,40.14
2023-04-05T11:47:56.358Z,40.27
2023-04-05T11:50:28.710Z,40.54
2023-04-05T11:51:32.953Z,39.75
2023-04-05T11:52:35.790Z,38.36
2023-04-05T11:53:38.208Z,37.90
2023-04-05T11:54:46.766Z,37.91
2023-04-05T11:55:51.117Z,37.98
2023-04-05T11:56:53.932Z,37.85
2023-04-05T11:57:56.991Z,37.62
2023-04-05T11:58:58.998Z,37.78
2023-04-05T12:00:01.842Z,37.62
2023-04-05T12:01:14.319Z,37.40
2023-04-05T12:02:17.356Z,37.63
2023-04-05T12:03:19.311Z,38.09
2023-04-05T12:04:22.338Z,38.01
2023-04-05T12:05:25.553Z,37.77
2023-04-05T12:06:28.344Z,37.10
2023-04-05T12:07:37.025Z,37.96
2023-04-05T12:08:40.638Z,38.31
2023-04-05T12:10:07.892Z,38.90
2023-04-05T12:11:12.162Z,39.62
2023-04-05T12:12:17.833Z,39.76
2023-04-05T12:13:27.076Z,39.79
2023-04-05T12:14:29.700Z,40.00
2023-04-05T12:15:32.703Z,39.12
2023-04-05T12:16:35.625Z,39.55
2023-04-05T12:17:44.425Z,38.21
2023-04-05T12:18:54.225Z,37.89
2023-04-05T12:19:56.158Z,37.29
2023-04-05T12:21:05.730Z,36.07
2023-04-05T12:22:09.441Z,35.66
2023-04-05T12:23:12.371Z,35.72
2023-04-05T12:24:15.454Z,36.03
2023-04-05T12:25:19.365Z,37.47
2023-04-05T12:26:22.359Z,37.03
2023-04-05T12:27:25.472Z,37.56
2023-04-05T12:28:50.634Z,34.95
2023-04-05T12:30:05.763Z,33.44
2023-04-05T12:31:12.321Z,35.37
2023-04-05T12:32:14.275Z,35.13
2023-04-05T12:33:18.715Z,35.44
2023-04-05T12:34:25.904Z,35.71
2023-04-05T12:35:32.998Z,36.20
2023-04-05T12:36:39.170Z,36.18
2023-04-05T12:37:42.189Z,34.92
2023-04-05T12:38:45.564Z,33.16
2023-04-05T12:39:47.747Z,34.71
2023-04-05T12:40:53.600Z,35.28
2023-04-05T12:41:59.233Z,34.93
2023-04-05T12:43:03.037Z,34.47
2023-04-05T12:44:07.658Z,34.43
2023-04-05T12:45:13.301Z,34.19
2023-04-05T12:46:18.345Z,33.19
2023-04-05T12:47:21.646Z,32.97
2023-04-05T12:48:26.048Z,33.32
2023-04-05T12:49:28.190Z,33.54
2023-04-05T12:50:32.690Z,33.26
2023-04-05T12:51:37.601Z,33.37
2023-04-05T12:52:39.385Z,33.58
2023-04-05T12:53:46.385Z,33.78
2023-04-05T12:54:54.509Z,34.68
2023-04-05T12:55:58.405Z,34.55
2023-04-05T12:57:04.215Z,34.96
2023-04-05T12:58:07.177Z,35.00
2023-04-05T12:59:10.019Z,34.33
2023-04-05T13:00:15.681Z,34.90
2023-04-05T13:01:19.206Z,35.24
2023-04-05T13:02:21.207Z,35.24
2023-04-05T13:03:27.661Z,35.77
2023-04-05T13:04:29.504Z,36.03
2023-04-05T13:05:33.698Z,36.00
2023-04-05T13:06:40.734Z,35.82
2023-04-05T13:07:43.526Z,34.99
2023-04-05T13:08:46.308Z,35.74
2023-04-05T13:09:48.416Z,35.23
2023-04-05T13:10:51.380Z,35.53
2023-04-05T13:11:53.309Z,35.04
2023-04-05T13:12:57.770Z,34.64
2023-04-05T13:13:59.632Z,35.35
2023-04-05T13:15:02.606Z,34.84
2023-04-05T13:16:06.735Z,34.51
2023-04-05T13:17:09.055Z,33.89
2023-04-05T13:18:14.690Z,33.62
2023-04-05T13:19:16.524Z,33.19
2023-04-05T13:20:19.871Z,33.58
2023-04-05T13:21:22.730Z,32.36
2023-04-05T13:22:27.824Z,32.49
2023-04-05T13:23:31.027Z,32.65
2023-04-05T13:24:32.817Z,32.34
2023-04-05T13:25:36.482Z,31.67
2023-04-05T13:26:39.123Z,32.67
2023-04-05T13:27:42.178Z,33.31
2023-04-05T13:28:45.088Z,33.76
2023-04-05T13:29:48.181Z,33.75
2023-04-05T13:30:52.789Z,33.60
2023-04-05T13:31:57.545Z,33.22
2023-04-05T13:33:00.575Z,33.21
2023-04-05T13:34:02.440Z,33.30
2023-04-05T13:35:06.044Z,33.30
2023-04-05T13:36:08.734Z,34.00
2023-04-05T13:37:11.661Z,34.20
2023-04-05T13:38:15.981Z,33.18
2023-04-05T13:39:18.752Z,33.95
2023-04-05T13:40:21.587Z,34.11
2023-04-05T13:41:24.019Z,34.35
2023-04-05T13:42:27.130Z,34.54
2023-04-05T13:43:31.308Z,34.36
2023-04-05T13:44:34.635Z,34.33
2023-04-05T13:45:39.398Z,34.40
2023-04-05T13:46:41.405Z,35.10
2023-04-05T13:47:45.462Z,34.28
2023-04-05T13:48:47.291Z,34.80
2023-04-05T13:49:50.483Z,34.92
2023-04-05T13:50:52.481Z,34.98
2023-04-05T13:51:56.479Z,34.99
2023-04-05T13:52:59.352Z,35.16
2023-04-05T13:54:03.141Z,35.35
2023-04-05T13:55:06.932Z,35.28
2023-04-05T13:56:08.970Z,35.75
2023-04-05T13:57:14.319Z,36.12
2023-04-05T13:58:18.896Z,35.49
2023-04-05T13:59:20.880Z,35.63
2023-04-05T14:00:24.251Z,35.99
2023-04-05T14:01:26.141Z,36.20
2023-04-05T14:02:29.348Z,35.84
2023-04-05T14:03:35.188Z,35.02
2023-04-05T14:04:38.381Z,33.83
2023-04-05T14:05:40.517Z,34.24
2023-04-05T14:06:46.691Z,34.50